createdAt,value
2019-01-20T00:00:07.953Z,6.62
2019-01-20T00:02:37.168Z,6.57
2019-01-20T00:05:08.380Z,6.57
2019-01-20T00:07:37.540Z,6.55
2019-01-20T00:10:08.634Z,6.56
2019-01-20T00:12:37.621Z,6.57
2019-01-20T00:15:07.333Z,6.56
2019-01-20T00:17:36.487Z,6.57
2019-01-20T00:20:08.264Z,6.58
2019-01-20T00:22:37.421Z,6.60
2019-01-20T00:25:06.950Z,6.62
2019-01-20T00:27:36.089Z,6.64
2019-01-20T00:30:06.743Z,6.65
2019-01-20T00:32:35.947Z,6.65
2019-01-20T00:35:05.838Z,6.65
2019-01-20T00:37:34.856Z,6.62
2019-01-20T00:40:04.253Z,6.62
2019-01-20T00:42:33.450Z,6.61
2019-01-20T00:45:03.245Z,6.62
2019-01-20T00:47:32.577Z,6.65
2019-01-20T00:50:01.735Z,6.69
2019-01-20T00:52:31.572Z,6.73
2019-01-20T00:55:01.262Z,6.77
2019-01-20T00:57:30.494Z,6.75
2019-01-20T00:59:59.606Z,6.72
2019-01-20T01:02:28.957Z,6.71
2019-01-20T01:04:58.513Z,6.71
2019-01-20T01:07:27.817Z,6.71
2019-01-20T01:09:56.998Z,6.67
2019-01-20T01:12:26.178Z,6.65
2019-01-20T01:14:55.294Z,6.61
2019-01-20T01:17:24.387Z,6.58
2019-01-20T01:19:53.498Z,6.58
2019-01-20T01:22:22.680Z,6.60
2019-01-20T01:24:51.852Z,6.63
2019-01-20T01:27:20.974Z,6.65
2019-01-20T01:29:51.030Z,6.68
2019-01-20T01:32:20.094Z,6.67
2019-01-20T01:34:49.140Z,6.69
2019-01-20T01:37:18.230Z,6.69
2019-01-20T01:39:47.336Z,6.73
2019-01-20T01:42:16.441Z,6.77
2019-01-20T01:44:45.567Z,6.78
2019-01-20T01:47:15.165Z,6.81
2019-01-20T01:49:44.340Z,6.82
2019-01-20T01:52:13.858Z,6.82
2019-01-20T01:54:43.682Z,6.80
2019-01-20T01:57:12.838Z,6.77
2019-01-20T01:59:41.940Z,6.75
2019-01-20T02:02:11.034Z,6.73
2019-01-20T02:04:40.161Z,6.74
2019-01-20T02:07:09.383Z,6.72
2019-01-20T02:09:39.240Z,6.70
2019-01-20T02:12:08.430Z,6.68
2019-01-20T02:14:37.540Z,6.64
2019-01-20T02:17:06.636Z,6.61
2019-01-20T02:19:37.456Z,6.56
2019-01-20T02:22:08.128Z,6.54
2019-01-20T02:24:37.197Z,6.53
2019-01-20T02:27:06.278Z,6.50
2019-01-20T02:29:35.414Z,6.47
2019-01-20T02:32:04.780Z,6.43
2019-01-20T02:34:33.784Z,6.40
2019-01-20T02:37:02.858Z,6.37
2019-01-20T02:39:31.900Z,6.35
2019-01-20T02:42:01.074Z,6.35
2019-01-20T02:44:30.113Z,6.35
2019-01-20T02:46:59.172Z,6.34
2019-01-20T02:49:28.651Z,6.35
2019-01-20T02:51:57.734Z,6.33
2019-01-20T02:54:26.877Z,6.33
2019-01-20T02:56:56.032Z,6.34
2019-01-20T02:59:25.589Z,6.37
2019-01-20T03:01:54.672Z,6.40
2019-01-20T03:04:25.548Z,6.38
2019-01-20T03:06:52.981Z,6.30
2019-01-20T03:09:22.042Z,6.27
2019-01-20T03:11:51.199Z,6.26
2019-01-20T03:14:20.301Z,6.26
2019-01-20T03:16:49.461Z,6.24
2019-01-20T03:19:18.650Z,6.22
2019-01-20T03:21:47.828Z,6.22
2019-01-20T03:24:16.839Z,6.20
2019-01-20T03:26:45.907Z,6.20
2019-01-20T03:29:15.013Z,6.18
2019-01-20T03:31:44.073Z,6.17
2019-01-20T03:34:13.152Z,6.16
2019-01-20T03:36:42.315Z,6.15
2019-01-20T03:39:11.610Z,6.15
2019-01-20T03:41:40.970Z,6.18
2019-01-20T03:44:10.042Z,6.19
2019-01-20T03:46:39.100Z,6.20
2019-01-20T03:49:08.163Z,6.18
2019-01-20T03:51:37.278Z,6.17
2019-01-20T03:54:06.493Z,6.18
2019-01-20T03:56:35.676Z,6.18
2019-01-20T03:59:04.922Z,6.18
2019-01-20T04:01:34.668Z,6.18
2019-01-20T04:04:03.849Z,6.17
2019-01-20T04:06:32.890Z,6.17
2019-01-20T04:09:01.997Z,6.18
2019-01-20T04:11:31.133Z,6.17
2019-01-20T04:14:00.415Z,6.14
2019-01-20T04:16:29.526Z,6.09
2019-01-20T04:18:58.644Z,6.03
2019-01-20T04:21:27.696Z,6.01
2019-01-20T04:23:56.846Z,5.98
2019-01-20T04:26:25.882Z,5.98
2019-01-20T04:28:55.067Z,5.97
2019-01-20T04:31:24.193Z,5.96
2019-01-20T04:33:53.430Z,5.97
2019-01-20T04:36:22.831Z,5.98
2019-01-20T04:38:51.913Z,5.98
2019-01-20T04:41:20.993Z,5.97
2019-01-20T04:43:50.049Z,5.98
2019-01-20T04:46:19.191Z,5.96
2019-01-20T04:48:48.234Z,5.94
2019-01-20T04:51:17.349Z,5.90
2019-01-20T04:53:46.527Z,5.88
2019-01-20T04:56:15.674Z,5.84
2019-01-20T04:58:45.248Z,5.81
2019-01-20T05:01:14.411Z,5.79
2019-01-20T05:03:43.478Z,5.76
2019-01-20T05:06:12.601Z,5.74
2019-01-20T05:08:44.502Z,5.72
2019-01-20T05:11:13.598Z,5.70
2019-01-20T05:13:42.796Z,5.69
2019-01-20T05:16:11.875Z,5.70
2019-01-20T05:18:41.066Z,5.70
2019-01-20T05:21:10.938Z,5.69
2019-01-20T05:23:40.047Z,5.68
2019-01-20T05:26:09.212Z,5.65
2019-01-20T05:28:38.362Z,5.65
2019-01-20T05:31:07.521Z,5.61
2019-01-20T05:33:36.697Z,5.57
2019-01-20T05:36:05.996Z,5.52
2019-01-20T05:38:35.179Z,5.48
2019-01-20T05:41:04.322Z,5.45
2019-01-20T05:43:33.383Z,5.42
2019-01-20T05:46:02.509Z,5.42
2019-01-20T05:48:32.864Z,5.45
2019-01-20T05:51:00.837Z,5.49
2019-01-20T05:53:30.142Z,5.51
2019-01-20T05:55:59.867Z,5.46
2019-01-20T05:58:28.938Z,5.43
2019-01-20T06:00:58.055Z,5.39
2019-01-20T06:03:27.219Z,5.36
2019-01-20T06:05:56.439Z,5.34
2019-01-20T06:08:25.515Z,5.32
2019-01-20T06:10:54.612Z,5.32
2019-01-20T06:13:23.736Z,5.32
2019-01-20T06:15:52.789Z,5.34
2019-01-20T06:18:21.933Z,5.35
2019-01-20T06:20:51.063Z,5.37
2019-01-20T06:23:21.022Z,5.41
2019-01-20T06:25:51.662Z,5.45
2019-01-20T06:43:09.794Z,5.55
2019-01-20T06:45:39.082Z,5.57
2019-01-20T06:48:08.204Z,5.58
2019-01-20T06:50:37.485Z,5.56
2019-01-20T06:53:06.618Z,5.58
2019-01-20T06:55:35.741Z,5.58
2019-01-20T06:58:05.071Z,5.57
2019-01-20T07:00:34.176Z,5.57
2019-01-20T07:03:03.280Z,5.59
2019-01-20T07:05:32.426Z,5.60
2019-01-20T07:08:01.591Z,5.63
2019-01-20T07:10:30.839Z,5.66
2019-01-20T07:12:59.900Z,5.69
2019-01-20T07:15:29.062Z,5.72
2019-01-20T07:17:58.141Z,5.68
2019-01-20T07:20:27.250Z,5.68
2019-01-20T07:22:56.490Z,5.68
2019-01-20T07:25:25.659Z,5.68
2019-01-20T07:27:54.767Z,5.70
2019-01-20T07:30:24.431Z,5.68
2019-01-20T07:32:53.554Z,5.69
2019-01-20T07:35:22.905Z,5.69
2019-01-20T07:37:52.334Z,5.67
2019-01-20T07:40:23.125Z,5.66
2019-01-20T07:42:52.230Z,5.64
2019-01-20T07:45:21.412Z,5.64
2019-01-20T07:47:50.662Z,5.63
2019-01-20T07:50:21.576Z,5.63
2019-01-20T07:52:50.734Z,5.65
2019-01-20T07:55:20.053Z,5.65
2019-01-20T07:57:49.223Z,5.65
2019-01-20T08:00:21.454Z,5.64
2019-01-20T08:02:50.698Z,5.67
2019-01-20T08:05:20.087Z,5.71
2019-01-20T08:07:49.495Z,5.73
2019-01-20T08:10:23.609Z,5.75
2019-01-20T08:12:52.729Z,5.76
2019-01-20T08:15:21.923Z,5.77
2019-01-20T08:17:51.144Z,5.80
2019-01-20T08:20:20.654Z,5.82
2019-01-20T08:22:49.956Z,5.81
2019-01-20T08:25:19.208Z,5.76
2019-01-20T08:27:48.429Z,5.74
2019-01-20T08:30:19.452Z,5.73
2019-01-20T08:32:48.661Z,5.74
2019-01-20T08:35:17.836Z,5.74
2019-01-20T08:37:47.140Z,5.75
2019-01-20T08:40:21.996Z,5.78
2019-01-20T08:42:51.110Z,5.83
2019-01-20T08:45:29.360Z,5.87
2019-01-20T08:48:03.787Z,5.92
2019-01-20T08:50:32.964Z,5.96
2019-01-20T08:53:02.083Z,5.97
2019-01-20T08:55:31.280Z,5.96
2019-01-20T08:58:00.485Z,5.96
2019-01-20T09:00:29.578Z,5.98
2019-01-20T09:02:58.680Z,6.00
2019-01-20T09:05:27.801Z,6.02
2019-01-20T09:07:56.882Z,6.01
2019-01-20T09:10:27.711Z,6.05
2019-01-20T09:12:59.759Z,6.07
2019-01-20T09:15:29.070Z,6.10
2019-01-20T09:17:58.786Z,6.12
2019-01-20T09:20:27.981Z,6.12
2019-01-20T09:22:57.102Z,6.15
2019-01-20T09:25:26.268Z,6.17
2019-01-20T09:27:55.393Z,6.19
2019-01-20T09:30:24.581Z,6.21
2019-01-20T09:32:53.778Z,6.24
2019-01-20T09:35:23.782Z,6.26
2019-01-20T09:37:52.982Z,6.30
2019-01-20T09:40:22.183Z,6.32
2019-01-20T09:42:51.682Z,6.34
2019-01-20T09:45:26.847Z,6.37
2019-01-20T09:47:57.459Z,6.41
2019-01-20T09:50:26.576Z,6.46
2019-01-20T09:52:55.952Z,6.50
2019-01-20T09:55:26.576Z,6.54
2019-01-20T09:57:55.950Z,6.58
2019-01-20T10:00:26.931Z,6.61
2019-01-20T10:02:56.669Z,6.66
2019-01-20T10:05:26.438Z,6.70
2019-01-20T10:07:55.738Z,6.77
2019-01-20T10:10:24.811Z,6.82
2019-01-20T10:12:53.931Z,6.83
2019-01-20T10:15:26.916Z,6.86
2019-01-20T10:17:56.108Z,6.90
2019-01-20T10:20:28.275Z,6.96
2019-01-20T10:22:57.321Z,7.00
2019-01-20T10:25:26.479Z,7.06
2019-01-20T10:27:55.709Z,7.12
2019-01-20T10:30:27.252Z,7.17
2019-01-20T10:32:56.421Z,7.24
2019-01-20T10:35:29.957Z,7.30
2019-01-20T10:38:00.305Z,7.36
2019-01-20T10:40:32.296Z,7.41
2019-01-20T10:43:00.375Z,7.47
2019-01-20T10:45:29.481Z,7.50
2019-01-20T10:47:58.539Z,7.53
2019-01-20T10:50:27.861Z,7.57
2019-01-20T10:52:57.363Z,7.60
2019-01-20T10:55:26.431Z,7.64
2019-01-20T10:57:55.589Z,7.68
2019-01-20T11:00:27.325Z,7.73
2019-01-20T11:02:56.792Z,7.76
2019-01-20T11:05:30.342Z,7.80
2019-01-20T11:07:55.144Z,7.83
2019-01-20T11:10:25.564Z,7.88
2019-01-20T11:12:55.687Z,7.90
2019-01-20T11:15:24.797Z,7.93
2019-01-20T11:17:53.995Z,7.95
2019-01-20T11:20:23.441Z,7.98
2019-01-20T11:22:52.623Z,8.00
2019-01-20T11:25:26.631Z,8.03
2019-01-20T11:27:55.761Z,8.03
2019-01-20T11:30:24.955Z,8.02
2019-01-20T11:32:54.097Z,8.01
2019-01-20T11:35:23.975Z,8.00
2019-01-20T11:37:53.572Z,7.99
2019-01-20T11:40:25.299Z,7.99
2019-01-20T11:42:58.272Z,7.99
2019-01-20T11:45:34.593Z,8.00
2019-01-20T11:48:04.744Z,8.02
2019-01-20T11:50:35.365Z,8.03
2019-01-20T11:53:04.994Z,8.01
2019-01-20T11:55:34.484Z,8.01
2019-01-20T11:58:03.682Z,8.03
2019-01-20T12:00:35.853Z,8.06
2019-01-20T12:03:05.615Z,8.09
2019-01-20T12:05:36.243Z,8.14
2019-01-20T12:08:05.553Z,8.17
2019-01-20T12:10:35.946Z,8.23
2019-01-20T12:13:08.472Z,8.25
2019-01-20T12:15:39.375Z,8.30
2019-01-20T12:18:08.892Z,8.36
2019-01-20T12:20:41.000Z,8.38
2019-01-20T12:23:10.862Z,8.39
2019-01-20T12:25:40.270Z,8.41
2019-01-20T12:28:09.653Z,8.42
2019-01-20T12:30:39.848Z,8.45
2019-01-20T12:33:14.014Z,8.48
2019-01-20T12:35:43.104Z,8.51
2019-01-20T12:38:12.316Z,8.56
2019-01-20T12:40:44.419Z,8.58
2019-01-20T12:43:13.659Z,8.59
2019-01-20T12:45:42.950Z,8.59
2019-01-20T12:48:13.274Z,8.58
2019-01-20T12:50:43.005Z,8.55
2019-01-20T12:53:12.164Z,8.53
2019-01-20T12:55:41.851Z,8.51
2019-01-20T12:58:11.096Z,8.49
2019-01-20T13:00:40.258Z,8.52
2019-01-20T13:03:09.675Z,8.57
2019-01-20T13:05:40.030Z,8.64
2019-01-20T13:08:09.732Z,8.71
2019-01-20T13:10:39.737Z,8.76
2019-01-20T13:13:10.231Z,8.82
2019-01-20T13:15:43.356Z,8.88
2019-01-20T13:18:13.001Z,8.91
2019-01-20T13:20:43.775Z,8.94
2019-01-20T13:23:13.993Z,8.94
2019-01-20T13:25:43.714Z,8.96
2019-01-20T13:28:13.192Z,8.98
2019-01-20T13:30:44.389Z,8.99
2019-01-20T13:33:13.772Z,8.97
2019-01-20T13:35:42.973Z,8.95
2019-01-20T13:38:15.654Z,8.93
2019-01-20T13:40:58.861Z,8.88
2019-01-20T13:43:28.433Z,8.82
2019-01-20T13:45:57.795Z,8.77
2019-01-20T13:48:26.871Z,8.72
2019-01-20T13:50:56.025Z,8.68
2019-01-20T13:53:25.271Z,8.65
2019-01-20T13:56:01.039Z,8.65
2019-01-20T13:58:24.845Z,8.65
2019-01-20T14:00:53.880Z,8.63
2019-01-20T14:03:23.081Z,8.63
2019-01-20T14:05:52.317Z,8.64
2019-01-20T14:08:21.370Z,8.64
2019-01-20T14:10:50.506Z,8.67
2019-01-20T14:15:55.116Z,8.66
2019-01-20T14:18:24.369Z,8.65
2019-01-20T14:20:53.676Z,8.64
2019-01-20T14:23:22.830Z,8.63
2019-01-20T14:25:53.847Z,8.65
2019-01-20T14:28:23.389Z,8.66
2019-01-20T14:30:52.575Z,8.67
2019-01-20T14:33:22.689Z,8.66
2019-01-20T14:35:53.134Z,8.65
2019-01-20T14:38:22.503Z,8.64
2019-01-20T14:40:51.700Z,8.63
2019-01-20T14:43:22.232Z,8.65
2019-01-20T14:45:51.592Z,8.65
2019-01-20T14:48:21.208Z,8.67
2019-01-20T14:50:50.401Z,8.68
2019-01-20T14:53:19.543Z,8.68
2019-01-20T14:55:50.339Z,8.67
2019-01-20T14:58:21.730Z,8.66
2019-01-20T15:00:50.928Z,8.64
2019-01-20T15:03:20.234Z,8.66
2019-01-20T15:05:49.511Z,8.66
2019-01-20T15:08:19.897Z,8.66
2019-01-20T15:10:49.196Z,8.65
2019-01-20T15:13:18.397Z,8.64
2019-01-20T15:15:48.615Z,8.60
2019-01-20T15:18:18.024Z,8.57
2019-01-20T15:20:47.346Z,8.52
2019-01-20T15:23:22.591Z,8.48
2019-01-20T15:25:51.994Z,8.44
2019-01-20T15:28:21.356Z,8.40
2019-01-20T15:30:50.700Z,8.34
2019-01-20T15:33:20.008Z,8.29
2019-01-20T15:35:49.301Z,8.26
2019-01-20T15:38:18.722Z,8.24
2019-01-20T15:40:48.085Z,8.23
2019-01-20T15:43:18.838Z,8.25
2019-01-20T15:45:48.128Z,8.28
2019-01-20T15:48:17.448Z,8.29
2019-01-20T15:50:46.760Z,8.31
2019-01-20T15:53:16.207Z,8.29
2019-01-20T15:55:45.713Z,8.27
2019-01-20T15:58:15.557Z,8.22
2019-01-20T16:00:45.089Z,8.19
2019-01-20T16:03:14.439Z,8.18
2019-01-20T16:05:43.870Z,8.18
2019-01-20T16:08:13.262Z,8.20
2019-01-20T16:10:43.884Z,8.20
2019-01-20T16:13:13.583Z,8.22
2019-01-20T16:15:43.080Z,8.21
2019-01-20T16:18:14.296Z,8.20
2019-01-20T16:20:42.630Z,8.22
2019-01-20T16:23:11.935Z,8.22
2019-01-20T16:25:41.237Z,8.20
2019-01-20T16:28:12.573Z,8.18
2019-01-20T16:30:44.227Z,8.16
2019-01-20T16:33:14.486Z,8.15
2019-01-20T16:35:43.759Z,8.11
2019-01-20T16:38:13.449Z,8.10
2019-01-20T16:40:43.786Z,8.07
2019-01-20T16:43:14.008Z,8.05
2019-01-20T16:45:46.086Z,8.03
2019-01-20T16:48:15.531Z,8.04
2019-01-20T16:50:44.808Z,8.04
2019-01-20T16:53:14.139Z,8.06
2019-01-20T16:55:43.538Z,8.07
2019-01-20T16:58:13.077Z,8.10
2019-01-20T17:00:44.319Z,8.10
2019-01-20T17:03:13.633Z,8.08
2019-01-20T17:05:43.735Z,8.05
2019-01-20T17:08:13.162Z,8.02
2019-01-20T17:10:43.793Z,7.99
2019-01-20T17:13:13.511Z,7.96
2019-01-20T17:15:44.837Z,7.95
2019-01-20T17:18:16.082Z,7.93
2019-01-20T17:20:45.616Z,7.91
2019-01-20T17:23:14.976Z,7.89
2019-01-20T17:25:47.430Z,7.89
2019-01-20T17:28:16.837Z,7.88
2019-01-20T17:30:46.384Z,7.87
2019-01-20T17:33:16.050Z,7.85
2019-01-20T17:35:46.884Z,7.87
2019-01-20T17:38:16.216Z,7.87
2019-01-20T17:40:46.158Z,7.86
2019-01-20T17:43:15.402Z,7.86
2019-01-20T17:45:48.641Z,7.88
2019-01-20T17:48:15.169Z,7.88
2019-01-20T17:50:45.397Z,7.88
2019-01-20T17:53:15.777Z,7.89
2019-01-20T17:55:45.174Z,7.90
2019-01-20T17:58:14.484Z,7.92
2019-01-20T18:00:47.300Z,7.94
2019-01-20T18:03:16.810Z,7.95
2019-01-20T18:05:46.106Z,7.96
2019-01-20T18:08:15.325Z,7.99
2019-01-20T18:10:44.713Z,8.00
2019-01-20T18:13:14.095Z,8.02
2019-01-20T18:15:43.439Z,8.02
2019-01-20T18:18:12.773Z,8.00
2019-01-20T18:20:42.108Z,7.99
2019-01-20T18:23:11.364Z,7.97
2019-01-20T18:25:40.645Z,7.95
2019-01-20T18:28:09.929Z,7.94
2019-01-20T18:30:39.134Z,7.92
2019-01-20T18:33:08.473Z,7.88
2019-01-20T18:35:37.582Z,7.83
2019-01-20T18:38:07.828Z,7.76
2019-01-20T18:40:37.110Z,7.70
2019-01-20T18:43:07.614Z,7.63
2019-01-20T18:45:38.247Z,7.57
2019-01-20T18:48:07.502Z,7.52
2019-01-20T18:50:38.108Z,7.46
2019-01-20T18:53:07.439Z,7.39
2019-01-20T18:55:42.238Z,7.32
2019-01-20T18:58:11.435Z,7.26
2019-01-20T19:00:46.002Z,7.20
2019-01-20T19:03:15.267Z,7.15
2019-01-20T19:05:44.555Z,7.10
2019-01-20T19:08:14.577Z,7.07
2019-01-20T19:10:44.489Z,7.02
2019-01-20T19:13:13.791Z,6.98
2019-01-20T19:15:44.134Z,6.95
2019-01-20T19:18:18.842Z,6.92
2019-01-20T19:20:42.711Z,6.88
2019-01-20T19:23:12.029Z,6.86
2019-01-20T19:25:42.644Z,6.83
2019-01-20T19:28:12.197Z,6.80
2019-01-20T19:30:46.432Z,6.75
2019-01-20T19:33:15.763Z,6.73
2019-01-20T19:35:45.074Z,6.66
2019-01-20T19:38:14.300Z,6.57
2019-01-20T19:40:44.657Z,6.49
2019-01-20T19:43:13.970Z,6.44
2019-01-20T19:45:46.839Z,6.40
2019-01-20T19:48:20.181Z,6.35
2019-01-20T19:50:45.558Z,6.28
2019-01-20T19:53:14.828Z,6.22
2019-01-20T19:55:44.412Z,6.16
2019-01-20T19:58:17.998Z,6.12
2019-01-20T20:00:47.603Z,6.08
2019-01-20T20:03:16.796Z,6.04
2019-01-20T20:05:46.043Z,6.00
2019-01-20T20:08:15.414Z,5.94
2019-01-20T20:10:44.690Z,5.88
2019-01-20T20:13:13.891Z,5.81
2019-01-20T20:15:43.167Z,5.77
2019-01-20T20:18:12.448Z,5.75
2019-01-20T20:20:41.789Z,5.72
2019-01-20T20:23:11.105Z,5.68
2019-01-20T20:25:40.333Z,5.65
2019-01-20T20:28:09.641Z,5.62
2019-01-20T20:30:39.235Z,5.61
2019-01-20T20:33:10.178Z,5.63
2019-01-20T20:35:39.640Z,5.66
2019-01-20T20:38:09.083Z,5.66
2019-01-20T20:40:38.332Z,5.64
2019-01-20T20:43:07.812Z,5.62
2019-01-20T20:45:37.171Z,5.64
2019-01-20T20:48:06.451Z,5.64
2019-01-20T20:50:35.995Z,5.63
2019-01-20T20:53:05.520Z,5.61
2019-01-20T20:55:34.763Z,5.57
2019-01-20T20:58:04.097Z,5.53
2019-01-20T21:00:38.349Z,5.47
2019-01-20T21:03:11.239Z,5.47
2019-01-20T21:05:41.275Z,5.51
2019-01-20T21:08:10.462Z,5.53
2019-01-20T21:10:39.650Z,5.51
2019-01-20T21:13:08.933Z,5.45
2019-01-20T21:15:38.212Z,5.37
2019-01-20T21:18:07.619Z,5.32
2019-01-20T21:20:36.825Z,5.31
2019-01-20T21:23:12.156Z,5.35
2019-01-20T21:25:35.384Z,5.41
2019-01-20T21:28:05.788Z,5.45
2019-01-20T21:30:35.087Z,5.50
2019-01-20T21:33:04.370Z,5.53
2019-01-20T21:35:33.604Z,5.56
2019-01-20T21:38:06.866Z,5.55
2019-01-20T21:40:33.198Z,5.53
2019-01-20T21:43:02.538Z,5.52
2019-01-20T21:45:31.851Z,5.52
2019-01-20T21:48:02.604Z,5.51
2019-01-20T21:50:32.469Z,5.52
2019-01-20T21:53:02.704Z,5.54
2019-01-20T21:55:32.561Z,5.60
2019-01-20T21:58:01.743Z,5.67
2019-01-20T22:00:33.639Z,5.75
2019-01-20T22:03:02.982Z,5.82
2019-01-20T22:05:32.205Z,5.84
2019-01-20T22:08:02.278Z,5.80
2019-01-20T22:10:31.459Z,5.76
2019-01-20T22:13:02.074Z,5.76
2019-01-20T22:15:31.233Z,5.78
2019-01-20T22:18:04.742Z,5.80
2019-01-20T22:20:34.754Z,5.83
2019-01-20T22:23:04.028Z,5.87
2019-01-20T22:25:33.263Z,5.89
2019-01-20T22:28:03.169Z,5.86
2019-01-20T22:30:32.304Z,5.83
2019-01-20T22:33:02.246Z,5.80
2019-01-20T22:35:31.543Z,5.78
2019-01-20T22:38:00.938Z,5.77
2019-01-20T22:40:30.140Z,5.77
2019-01-20T22:43:00.491Z,5.79
2019-01-20T22:45:30.716Z,5.81
2019-01-20T22:48:00.110Z,5.84
2019-01-20T22:50:29.384Z,5.89
2019-01-20T22:52:58.560Z,5.95
2019-01-20T22:55:27.714Z,5.92
2019-01-20T22:58:00.941Z,5.89
2019-01-20T23:00:39.391Z,5.87
2019-01-20T23:03:08.635Z,5.88
2019-01-20T23:05:37.799Z,5.88
2019-01-20T23:08:06.949Z,5.87
2019-01-20T23:10:36.209Z,5.83
2019-01-20T23:13:05.581Z,5.81
2019-01-20T23:15:35.508Z,5.82
2019-01-20T23:18:05.198Z,5.83
2019-01-20T23:20:34.829Z,5.84
2019-01-20T23:23:04.130Z,5.87
2019-01-20T23:25:33.325Z,5.91
2019-01-20T23:28:02.879Z,5.93
2019-01-20T23:30:32.136Z,5.96
2019-01-20T23:33:02.315Z,6.00
2019-01-20T23:35:31.549Z,6.01
2019-01-20T23:38:00.705Z,6.00
2019-01-20T23:40:29.962Z,6.02
2019-01-20T23:42:59.088Z,6.03
2019-01-20T23:45:28.300Z,5.97
2019-01-20T23:47:57.485Z,5.92
2019-01-20T23:50:26.710Z,5.89
2019-01-20T23:52:55.832Z,5.90
2019-01-20T23:55:25.812Z,5.89
2019-01-20T23:57:55.057Z,5.88
